createdAt,value
2023-04-25T00:00:17.911Z,2.10
2023-04-25T00:03:06.583Z,1.90
2023-04-25T00:05:57.862Z,2.10
2023-04-25T00:08:44.815Z,2.00
2023-04-25T00:11:32.512Z,2.00
2023-04-25T00:14:19.695Z,2.43
2023-04-25T00:17:08.528Z,2.40
2023-04-25T00:19:55.752Z,2.47
2023-04-25T00:22:43.828Z,1.90
2023-04-25T00:25:31.251Z,1.90
2023-04-25T00:28:20.785Z,2.00
2023-04-25T00:31:07.830Z,2.37
2023-04-25T00:33:55.238Z,2.20
2023-04-25T00:36:42.283Z,2.53
2023-04-25T00:39:30.322Z,1.80
2023-04-25T00:42:17.491Z,1.67
2023-04-25T00:45:08.462Z,1.57
2023-04-25T00:47:59.640Z,1.40
2023-04-25T00:50:53.867Z,1.70
2023-04-25T00:53:41.328Z,1.37
2023-04-25T00:56:29.963Z,1.50
2023-04-25T00:59:17.338Z,1.83
2023-04-25T01:02:06.848Z,1.40
2023-04-25T01:04:59.505Z,1.87
2023-04-25T01:07:48.321Z,1.70
2023-04-25T01:10:35.370Z,1.90
2023-04-25T01:13:24.030Z,2.00
2023-04-25T01:16:11.027Z,1.87
2023-04-25T01:18:57.928Z,1.43
2023-04-25T01:21:47.508Z,1.67
2023-04-25T01:24:35.094Z,1.70
2023-04-25T01:27:22.702Z,1.83
2023-04-25T01:30:11.930Z,1.93
2023-04-25T01:33:00.080Z,1.63
2023-04-25T01:35:49.009Z,2.10
2023-04-25T01:38:37.695Z,1.93
2023-04-25T01:41:25.542Z,1.87
2023-04-25T01:44:12.855Z,1.90
2023-04-25T01:47:05.647Z,1.63
2023-04-25T01:49:52.597Z,1.90
2023-04-25T01:52:39.753Z,1.97
2023-04-25T01:55:28.326Z,2.37
2023-04-25T01:58:15.449Z,1.53
2023-04-25T02:01:02.412Z,1.70
2023-04-25T02:03:52.746Z,2.57
2023-04-25T02:06:39.898Z,1.87
2023-04-25T02:09:26.974Z,1.80
2023-04-25T02:12:15.055Z,1.70
2023-04-25T02:15:05.840Z,1.90
2023-04-25T02:17:53.790Z,1.70
2023-04-25T02:20:42.144Z,1.80
2023-04-25T02:23:30.437Z,2.30
2023-04-25T02:26:17.408Z,2.10
2023-04-25T02:29:05.947Z,1.80
2023-04-25T02:31:53.008Z,1.83
2023-04-25T02:34:40.588Z,2.10
2023-04-25T02:37:27.525Z,1.83
2023-04-25T02:40:14.760Z,2.03
2023-04-25T02:43:01.679Z,2.30
2023-04-25T02:45:50.124Z,1.87
2023-04-25T02:48:37.520Z,2.07
2023-04-25T02:51:24.587Z,2.33
2023-04-25T02:54:14.576Z,2.10
2023-04-25T02:57:01.972Z,2.00
2023-04-25T02:59:51.441Z,2.00
2023-04-25T03:02:40.011Z,2.07
2023-04-25T03:05:27.109Z,2.00
2023-04-25T03:08:14.292Z,2.67
2023-04-25T03:11:00.986Z,2.10
2023-04-25T03:13:48.172Z,2.23
2023-04-25T03:16:36.311Z,2.00
2023-04-25T03:19:24.604Z,2.20
2023-04-25T03:22:13.616Z,2.17
2023-04-25T03:25:02.400Z,2.30
2023-04-25T03:27:49.204Z,2.47
2023-04-25T03:30:35.952Z,2.40
2023-04-25T03:33:23.107Z,1.90
2023-04-25T03:36:11.746Z,2.20
2023-04-25T03:38:58.828Z,2.30
2023-04-25T03:41:45.933Z,2.67
2023-04-25T03:44:33.090Z,2.10
2023-04-25T03:47:19.845Z,2.43
2023-04-25T03:50:08.003Z,1.97
2023-04-25T03:52:56.615Z,1.73
2023-04-25T03:55:43.976Z,2.60
2023-04-25T03:58:32.890Z,2.47
2023-04-25T04:01:19.675Z,2.10
2023-04-25T04:04:06.855Z,2.50
2023-04-25T04:06:54.101Z,2.57
2023-04-25T04:09:42.508Z,2.27
2023-04-25T04:12:29.560Z,2.53
2023-04-25T04:15:16.648Z,2.67
2023-04-25T04:18:04.008Z,2.27
2023-04-25T04:20:50.962Z,2.77
2023-04-25T04:23:39.756Z,3.03
2023-04-25T04:26:28.461Z,3.10
2023-04-25T04:29:21.994Z,2.37
2023-04-25T04:32:09.784Z,2.70
2023-04-25T04:34:57.079Z,2.47
2023-04-25T04:37:45.142Z,2.47
2023-04-25T04:40:33.324Z,3.07
2023-04-25T04:43:23.936Z,3.33
2023-04-25T04:46:12.107Z,3.23
2023-04-25T04:48:59.813Z,2.67
2023-04-25T04:51:46.701Z,2.83
2023-04-25T04:54:33.388Z,3.23
2023-04-25T04:57:20.197Z,2.70
2023-04-25T05:00:11.981Z,3.33
2023-04-25T05:02:59.171Z,2.90
2023-04-25T05:05:47.083Z,3.67
2023-04-25T05:08:34.288Z,3.07
2023-04-25T05:11:21.994Z,4.00
2023-04-25T05:14:08.690Z,3.60
2023-04-25T05:16:57.042Z,3.67
2023-04-25T05:19:44.097Z,3.30
2023-04-25T05:22:31.189Z,3.13
2023-04-25T05:25:18.379Z,3.07
2023-04-25T05:28:06.083Z,3.40
2023-04-25T05:30:53.344Z,3.23
2023-04-25T05:33:41.689Z,3.47
2023-04-25T05:36:29.103Z,3.03
2023-04-25T05:39:15.980Z,3.37
2023-04-25T05:42:04.865Z,3.30
2023-04-25T05:44:52.054Z,3.37
2023-04-25T05:47:39.520Z,3.60
2023-04-25T05:50:28.082Z,2.70
2023-04-25T05:53:15.094Z,3.50
2023-04-25T05:56:02.308Z,4.00
2023-04-25T05:58:49.249Z,3.13
2023-04-25T06:01:36.211Z,2.67
2023-04-25T06:04:23.386Z,3.17
2023-04-25T06:07:12.023Z,3.83
2023-04-25T06:09:59.514Z,3.70
2023-04-25T06:12:46.703Z,2.73
2023-04-25T06:15:34.365Z,3.43
2023-04-25T06:18:21.502Z,2.90
2023-04-25T06:21:08.600Z,2.50
2023-04-25T06:23:56.712Z,2.73
2023-04-25T06:26:43.668Z,2.53
2023-04-25T06:29:31.011Z,2.97
2023-04-25T06:32:21.989Z,2.77
2023-04-25T06:35:09.892Z,3.20
2023-04-25T06:37:57.975Z,3.57
2023-04-25T06:40:46.293Z,2.50
2023-04-25T06:43:34.597Z,2.17
2023-04-25T06:46:21.837Z,2.50
2023-04-25T06:49:08.504Z,2.40
2023-04-25T06:51:55.634Z,2.20
2023-04-25T06:54:42.544Z,2.00
2023-04-25T06:57:30.789Z,2.30
2023-04-25T07:00:18.585Z,3.03
2023-04-25T07:03:06.062Z,2.70
2023-04-25T07:05:56.029Z,2.33
2023-04-25T07:08:44.596Z,3.50
2023-04-25T07:11:32.601Z,3.57
2023-04-25T07:14:21.373Z,3.60
2023-04-25T07:17:08.239Z,4.27
2023-04-25T07:19:55.006Z,2.37
2023-04-25T07:22:44.218Z,1.70
2023-04-25T07:25:31.743Z,2.23
2023-04-25T07:28:19.680Z,2.67
2023-04-25T07:31:08.177Z,2.27
2023-04-25T07:33:54.973Z,1.70
2023-04-25T07:36:41.785Z,2.10
2023-04-25T07:39:28.662Z,1.70
2023-04-25T07:42:15.932Z,1.30
2023-04-25T07:45:03.690Z,2.23
2023-04-25T07:47:52.427Z,1.93
2023-04-25T07:50:39.391Z,1.77
2023-04-25T07:53:26.403Z,1.37
2023-04-25T07:56:13.613Z,1.30
2023-04-25T07:59:01.681Z,1.83
2023-04-25T08:01:48.934Z,1.40
2023-04-25T08:04:37.415Z,1.27
2023-04-25T08:07:24.509Z,1.10
2023-04-25T08:10:12.085Z,0.70
2023-04-25T08:12:59.164Z,0.67
2023-04-25T08:15:46.147Z,0.60
2023-04-25T08:18:33.048Z,1.10
2023-04-25T08:21:21.573Z,0.60
2023-04-25T08:24:08.908Z,0.40
2023-04-25T08:26:56.784Z,0.40
2023-04-25T08:29:44.760Z,0.40
2023-04-25T08:32:31.751Z,0.50
2023-04-25T08:35:18.992Z,0.67
2023-04-25T08:38:08.056Z,0.40
2023-04-25T08:40:56.538Z,0.53
2023-04-25T08:43:45.980Z,0.50
2023-04-25T08:46:33.315Z,0.40
2023-04-25T08:49:22.624Z,0.40
2023-04-25T08:52:13.666Z,0.40
2023-04-25T08:55:03.880Z,0.43
2023-04-25T08:57:51.844Z,0.50
2023-04-25T09:00:39.160Z,0.70
2023-04-25T09:03:26.073Z,0.63
2023-04-25T09:06:14.134Z,0.80
2023-04-25T09:09:06.558Z,0.80
2023-04-25T09:11:57.078Z,1.10
2023-04-25T09:14:44.874Z,0.80
2023-04-25T09:17:32.879Z,0.90
2023-04-25T09:20:20.931Z,0.97
2023-04-25T09:23:08.378Z,1.10
2023-04-25T09:25:56.124Z,1.20
2023-04-25T09:28:45.184Z,0.80
2023-04-25T09:31:35.215Z,0.80
2023-04-25T09:34:22.300Z,0.83
2023-04-25T09:37:10.620Z,0.87
2023-04-25T09:40:01.316Z,0.80
2023-04-25T09:42:48.431Z,1.00
2023-04-25T09:45:46.888Z,1.00
2023-04-25T09:48:34.188Z,0.90
2023-04-25T09:51:21.069Z,1.23
2023-04-25T09:54:08.284Z,1.00
2023-04-25T09:56:55.807Z,1.10
2023-04-25T09:59:46.120Z,0.93
2023-04-25T10:02:36.087Z,1.10
2023-04-25T10:05:26.298Z,1.00
2023-04-25T10:08:15.722Z,1.00
2023-04-25T10:11:09.751Z,0.77
2023-04-25T10:14:00.436Z,0.97
2023-04-25T10:16:49.281Z,0.70
2023-04-25T10:19:37.761Z,1.00
2023-04-25T10:22:33.970Z,1.03
2023-04-25T10:25:23.042Z,1.40
2023-04-25T10:28:09.986Z,1.63
2023-04-25T10:31:00.718Z,1.17
2023-04-25T10:33:47.871Z,1.20
2023-04-25T10:36:38.423Z,1.60
2023-04-25T10:39:28.934Z,1.07
2023-04-25T10:42:16.208Z,1.60
2023-04-25T10:45:08.544Z,1.70
2023-04-25T10:47:56.600Z,1.40
2023-04-25T10:50:43.733Z,1.70
2023-04-25T10:53:36.254Z,1.50
2023-04-25T10:56:24.277Z,1.43
2023-04-25T10:59:12.895Z,1.20
2023-04-25T11:02:00.540Z,1.30
2023-04-25T11:04:48.052Z,1.77
2023-04-25T11:10:57.140Z,1.70
2023-04-25T11:13:43.985Z,2.30
2023-04-25T11:16:32.236Z,2.30
2023-04-25T11:19:21.476Z,1.70
2023-04-25T11:22:08.903Z,2.50
2023-04-25T11:24:55.943Z,1.67
2023-04-25T11:27:53.436Z,1.70
2023-04-25T11:30:40.572Z,1.70
2023-04-25T11:33:28.534Z,1.53
2023-04-25T11:36:15.486Z,1.40
2023-04-25T11:39:04.072Z,1.40
2023-04-25T11:41:53.383Z,1.50
2023-04-25T11:44:45.401Z,1.47
2023-04-25T11:47:36.258Z,1.80
2023-04-25T11:50:26.520Z,1.70
2023-04-25T11:53:14.051Z,1.70
2023-04-25T11:56:02.067Z,1.50
2023-04-25T11:59:02.947Z,2.00
2023-04-25T12:01:52.699Z,1.93
2023-04-25T12:04:39.533Z,2.43
2023-04-25T12:07:31.294Z,2.10
2023-04-25T12:10:19.646Z,1.77
2023-04-25T12:13:21.321Z,1.67
2023-04-25T12:16:10.624Z,1.80
2023-04-25T12:19:00.759Z,1.30
2023-04-25T12:24:39.255Z,1.93
2023-04-25T12:27:28.398Z,1.90
2023-04-25T12:30:18.324Z,1.83
2023-04-25T12:33:05.934Z,1.80
2023-04-25T12:35:54.984Z,1.60
2023-04-25T12:38:42.848Z,1.47
2023-04-25T12:41:30.285Z,1.90
2023-04-25T12:44:18.167Z,1.30
2023-04-25T12:47:06.550Z,1.30
2023-04-25T12:49:53.770Z,1.53
2023-04-25T12:52:42.576Z,0.87
2023-04-25T12:55:32.784Z,1.30
2023-04-25T12:58:22.974Z,1.47
2023-04-25T13:01:10.013Z,1.30
2023-04-25T13:03:58.025Z,1.10
2023-04-25T13:06:45.261Z,1.20
2023-04-25T13:09:33.689Z,1.23
2023-04-25T13:12:20.623Z,1.10
2023-04-25T13:15:10.367Z,1.00
2023-04-25T13:17:57.629Z,1.20
2023-04-25T13:20:44.898Z,0.97
2023-04-25T13:23:34.166Z,1.10
2023-04-25T13:26:22.465Z,1.30
2023-04-25T13:29:09.965Z,1.10
2023-04-25T13:31:57.105Z,1.00
2023-04-25T13:34:44.222Z,1.07
2023-04-25T13:37:33.464Z,0.97
2023-04-25T13:40:22.825Z,1.30
2023-04-25T13:43:12.527Z,1.07
2023-04-25T13:45:59.432Z,0.97
2023-04-25T13:48:49.789Z,1.20
2023-04-25T13:51:36.814Z,1.27
2023-04-25T13:54:24.063Z,1.10
2023-04-25T13:57:12.117Z,1.10
2023-04-25T14:00:00.636Z,0.90
2023-04-25T14:02:49.298Z,1.10
2023-04-25T14:05:40.135Z,1.07
2023-04-25T14:08:27.666Z,1.13
2023-04-25T14:11:14.953Z,1.00
2023-04-25T14:14:01.749Z,0.80
2023-04-25T14:16:55.229Z,1.00
2023-04-25T14:19:44.462Z,0.90
2023-04-25T14:22:31.385Z,1.00
2023-04-25T14:25:18.489Z,1.07
2023-04-25T14:28:05.464Z,0.97
2023-04-25T14:35:23.947Z,1.40
2023-04-25T14:38:12.002Z,0.93
2023-04-25T14:41:02.378Z,0.77
2023-04-25T14:43:49.689Z,0.93
2023-04-25T14:46:39.373Z,0.80
2023-04-25T14:49:26.441Z,1.10
2023-04-25T14:52:16.737Z,1.00
2023-04-25T14:55:06.220Z,1.30
2023-04-25T14:57:56.429Z,1.00
2023-04-25T15:00:45.329Z,1.30
2023-04-25T15:03:33.169Z,1.03
2023-04-25T15:06:20.256Z,1.30
2023-04-25T15:09:09.638Z,1.40
2023-04-25T15:11:56.665Z,1.60
2023-04-25T15:14:43.503Z,1.50
2023-04-25T15:17:33.987Z,1.20
2023-04-25T15:20:21.067Z,1.20
2023-04-25T15:23:08.290Z,1.50
2023-04-25T15:25:56.720Z,1.47
2023-04-25T15:28:43.788Z,1.43
2023-04-25T15:31:31.393Z,1.47
2023-04-25T15:34:18.175Z,1.93
2023-04-25T15:37:05.057Z,1.50
2023-04-25T15:40:05.885Z,1.67
2023-04-25T15:42:55.219Z,1.53
2023-04-25T15:45:42.694Z,1.87
2023-04-25T15:48:29.479Z,1.43
2023-04-25T15:51:19.223Z,1.40
2023-04-25T15:54:06.636Z,1.57
2023-04-25T15:56:53.763Z,1.27
2023-04-25T15:59:42.200Z,1.40
2023-04-25T16:02:30.690Z,1.37
2023-04-25T16:05:20.610Z,1.57
2023-04-25T16:08:08.323Z,1.67
2023-04-25T16:10:55.441Z,1.50
2023-04-25T16:13:42.413Z,1.30
2023-04-25T16:16:31.406Z,1.70
2023-04-25T16:19:21.327Z,1.37
2023-04-25T16:22:11.361Z,1.17
2023-04-25T16:24:58.615Z,1.10
2023-04-25T16:27:45.530Z,1.27
2023-04-25T16:30:32.765Z,0.97
2023-04-25T16:33:21.190Z,0.80
2023-04-25T16:36:09.548Z,1.20
2023-04-25T16:38:56.588Z,1.20
2023-04-25T16:41:43.834Z,0.90
2023-04-25T16:44:31.151Z,1.00
2023-04-25T16:47:20.233Z,1.10
2023-04-25T16:50:10.500Z,1.00
2023-04-25T16:52:57.350Z,0.80
2023-04-25T16:55:44.342Z,0.70
2023-04-25T16:58:31.298Z,0.93
2023-04-25T17:01:20.124Z,0.60
2023-04-25T17:04:07.790Z,1.00
2023-04-25T17:06:56.203Z,0.70
2023-04-25T17:09:43.168Z,0.90
2023-04-25T17:12:30.771Z,1.03
2023-04-25T17:15:17.744Z,0.90
2023-04-25T17:18:04.893Z,0.80
2023-04-25T17:20:51.661Z,0.77
2023-04-25T17:23:45.553Z,0.63
2023-04-25T17:26:32.774Z,0.67
2023-04-25T17:29:21.736Z,0.73
2023-04-25T17:32:09.258Z,0.70
2023-04-25T17:34:56.873Z,0.90
2023-04-25T17:37:43.868Z,0.70
2023-04-25T17:40:32.316Z,0.80
2023-04-25T17:43:19.301Z,0.90
2023-04-25T17:46:06.426Z,0.90
2023-04-25T17:48:53.668Z,0.90
2023-04-25T17:51:40.707Z,1.00
2023-04-25T17:54:27.763Z,0.90
2023-04-25T17:57:16.378Z,1.20
2023-04-25T18:00:05.786Z,1.07
2023-04-25T18:02:53.129Z,1.00
2023-04-25T18:05:40.180Z,1.00
2023-04-25T18:08:26.907Z,0.90
2023-04-25T18:11:13.820Z,0.77
2023-04-25T18:14:02.036Z,0.90
2023-04-25T18:16:51.474Z,0.97
2023-04-25T18:19:38.513Z,1.07
2023-04-25T18:22:25.686Z,0.90
2023-04-25T18:25:13.831Z,0.97
2023-04-25T18:28:01.198Z,1.13
2023-04-25T18:30:50.558Z,0.90
2023-04-25T18:33:38.591Z,0.90
2023-04-25T18:36:25.590Z,1.17
2023-04-25T18:39:22.111Z,0.77
2023-04-25T18:42:10.216Z,0.97
2023-04-25T18:44:57.662Z,1.20
2023-04-25T18:47:46.813Z,1.33
2023-04-25T18:50:33.993Z,1.20
2023-04-25T18:53:21.036Z,1.20
2023-04-25T18:56:08.210Z,0.80
2023-04-25T18:58:55.923Z,0.90
2023-04-25T19:01:43.570Z,0.97
2023-04-25T19:04:32.575Z,1.20
2023-04-25T19:07:20.943Z,1.20
2023-04-25T19:10:09.518Z,1.40
2023-04-25T19:12:56.685Z,1.20
2023-04-25T19:15:43.827Z,0.90
2023-04-25T19:18:30.657Z,0.93
2023-04-25T19:21:18.778Z,0.97
2023-04-25T19:24:07.103Z,1.00
2023-04-25T19:26:53.981Z,0.87
2023-04-25T19:29:46.068Z,1.07
2023-04-25T19:32:33.503Z,0.97
2023-04-25T19:35:20.506Z,1.00
2023-04-25T19:38:09.968Z,1.00
2023-04-25T19:40:57.334Z,1.23
2023-04-25T19:43:44.409Z,1.10
2023-04-25T19:46:32.042Z,1.23
2023-04-25T19:49:19.142Z,1.60
2023-04-25T19:52:07.156Z,1.00
2023-04-25T19:54:58.245Z,1.40
2023-04-25T19:57:45.214Z,1.10
2023-04-25T20:00:32.350Z,1.80
2023-04-25T20:03:19.440Z,1.50
2023-04-25T20:06:07.111Z,1.40
2023-04-25T20:08:54.957Z,1.63
2023-04-25T20:11:45.508Z,1.60
2023-04-25T20:14:33.252Z,1.53
2023-04-25T20:17:20.390Z,1.23
2023-04-25T20:20:08.385Z,1.13
2023-04-25T20:22:55.607Z,1.47
2023-04-25T20:25:43.471Z,1.60
2023-04-25T20:28:31.824Z,1.37
2023-04-25T20:31:18.636Z,1.57
2023-04-25T20:34:05.921Z,1.47
2023-04-25T20:36:53.318Z,1.43
2023-04-25T20:39:40.131Z,1.40
2023-04-25T20:42:27.378Z,1.40
2023-04-25T20:45:16.323Z,1.50
2023-04-25T20:48:04.977Z,1.47
2023-04-25T20:50:52.366Z,1.27
2023-04-25T20:53:39.655Z,1.43
2023-04-25T20:56:26.592Z,1.70
2023-04-25T20:59:13.583Z,1.60
2023-04-25T21:02:02.623Z,2.10
2023-04-25T21:04:49.981Z,1.77
2023-04-25T21:07:36.989Z,1.67
2023-04-25T21:10:23.775Z,1.70
2023-04-25T21:13:12.368Z,1.40
2023-04-25T21:15:59.603Z,1.70
2023-04-25T21:18:47.776Z,1.60
2023-04-25T21:21:34.714Z,1.60
2023-04-25T21:24:22.116Z,1.53
2023-04-25T21:27:08.902Z,2.27
2023-04-25T21:29:55.821Z,2.00
2023-04-25T21:32:43.787Z,2.10
2023-04-25T21:35:32.370Z,1.90
2023-04-25T21:38:19.786Z,1.97
2023-04-25T21:41:06.915Z,2.17
2023-04-25T21:43:53.789Z,2.07
2023-04-25T21:46:40.824Z,2.07
2023-04-25T21:49:29.743Z,2.20
2023-04-25T21:52:18.542Z,1.87
2023-04-25T21:55:05.818Z,2.10
2023-04-25T21:57:55.443Z,2.50
2023-04-25T22:00:42.756Z,2.27
2023-04-25T22:03:29.544Z,1.70
2023-04-25T22:06:16.484Z,1.40
2023-04-25T22:09:05.315Z,1.10
2023-04-25T22:11:53.280Z,1.33
2023-04-25T22:14:41.546Z,0.87
2023-04-25T22:17:28.534Z,1.03
2023-04-25T22:20:17.190Z,1.03
2023-04-25T22:23:04.256Z,0.80
2023-04-25T22:25:52.637Z,1.23
2023-04-25T22:28:40.620Z,0.90
2023-04-25T22:31:27.578Z,0.97
2023-04-25T22:34:14.884Z,0.80
2023-04-25T22:37:02.138Z,1.10
2023-04-25T22:39:49.252Z,1.20
2023-04-25T22:42:42.289Z,1.20
2023-04-25T22:45:29.176Z,0.90
2023-04-25T22:48:16.040Z,1.37
2023-04-25T22:51:04.064Z,1.40
2023-04-25T22:53:51.734Z,1.50
2023-04-25T22:56:39.083Z,1.43
2023-04-25T22:59:27.632Z,1.43
2023-04-25T23:02:14.610Z,1.60
2023-04-25T23:05:02.615Z,1.70
2023-04-25T23:07:49.681Z,1.43
2023-04-25T23:10:37.108Z,1.80
2023-04-25T23:13:23.794Z,2.03
2023-04-25T23:16:12.576Z,1.70
2023-04-25T23:18:59.736Z,1.87
2023-04-25T23:21:46.928Z,1.70
2023-04-25T23:24:37.701Z,1.63
2023-04-25T23:27:24.467Z,1.47
2023-04-25T23:30:12.356Z,1.57
2023-04-25T23:33:00.700Z,1.60
2023-04-25T23:35:47.915Z,1.83
2023-04-25T23:38:34.648Z,1.60
2023-04-25T23:41:21.907Z,1.90
2023-04-25T23:44:10.765Z,1.23
2023-04-25T23:46:57.863Z,1.90
2023-04-25T23:49:46.214Z,1.73
2023-04-25T23:52:33.057Z,1.03
2023-04-25T23:55:20.488Z,1.70
2023-04-25T23:58:07.967Z,1.73
